Time;durP1;ratioP1;P1;durP2;ratioP2;P2;SDS_P1;SDS_P2;PMS_P1;PMS_P2;Temp;Humidity;BMP_temperature;BMP_pressure;BME280_temperature;BME280_humidity;BME280_pressure;Samples;Min_cycle;Max_cycle;Signal;HPM_P1;HPM_P2
2021/06/16 00:00:28;;;;;;;7.00;4.80;;;25.80;58.60;;;;;;4958287;28;20711;-78
2021/06/16 00:02:53;;;;;;;5.80;4.53;;;25.80;58.60;;;;;;4961379;28;20269;-79
2021/06/16 00:05:22;;;;;;;6.23;4.00;;;26.00;58.50;;;;;;4961282;28;20240;-79
2021/06/16 00:07:48;;;;;;;5.07;4.67;;;25.90;58.60;;;;;;4961290;28;20270;-77
2021/06/16 00:10:16;;;;;;;6.03;4.60;;;25.90;59.10;;;;;;4966498;28;21002;-76
2021/06/16 00:12:42;;;;;;;5.20;4.70;;;25.80;59.40;;;;;;4965348;28;20581;-79
2021/06/16 00:15:21;;;;;;;5.10;4.67;;;25.70;59.40;;;;;;4960164;28;20458;-79
2021/06/16 00:17:46;;;;;;;4.87;4.47;;;25.70;59.50;;;;;;4966612;28;20269;-79
2021/06/16 00:20:13;;;;;;;5.20;4.77;;;25.70;59.50;;;;;;4963745;28;20536;-78
2021/06/16 00:22:38;;;;;;;6.43;4.53;;;25.80;59.20;;;;;;4963151;28;20225;-78
2021/06/16 00:25:06;;;;;;;7.33;4.50;;;25.60;59.20;;;;;;4961296;28;20457;-79
2021/06/16 00:27:32;;;;;;;4.40;4.10;;;25.60;59.60;;;;;;4959669;28;20703;-79
2021/06/16 00:29:58;;;;;;;4.30;4.00;;;25.40;59.60;;;;;;4962112;28;20430;-78
2021/06/16 00:32:23;;;;;;;4.10;3.70;;;25.40;59.50;;;;;;4962469;28;20600;-76
2021/06/16 00:34:49;;;;;;;5.33;4.83;;;25.50;59.00;;;;;;4965372;28;20228;-79
2021/06/16 00:37:15;;;;;;;4.53;4.13;;;25.30;59.30;;;;;;4963348;28;20305;-77
2021/06/16 00:39:40;;;;;;;6.50;4.20;;;25.30;58.50;;;;;;4965067;28;20214;-79
2021/06/16 00:42:07;;;;;;;6.83;4.40;;;25.30;58.30;;;;;;4963771;28;20682;-79
2021/06/16 00:44:33;;;;;;;5.63;5.13;;;25.30;58.00;;;;;;4962848;28;20225;-78
2021/06/16 00:47:02;;;;;;;6.37;4.30;;;25.30;58.00;;;;;;4965321;28;20435;-78
2021/06/16 00:49:28;;;;;;;4.93;4.30;;;25.20;57.80;;;;;;4964001;28;20437;-77
2021/06/16 00:51:54;;;;;;;5.00;4.30;;;25.20;58.20;;;;;;4947738;28;20437;-78
2021/06/16 00:54:19;;;;;;;4.30;4.00;;;25.20;58.00;;;;;;4964443;28;20454;-76
2021/06/16 00:56:46;;;;;;;4.00;3.70;;;25.10;58.50;;;;;;4964205;28;20242;-77
2021/06/16 00:59:11;;;;;;;4.93;4.53;;;25.10;58.60;;;;;;4981783;28;20648;-75
2021/06/16 01:01:46;;;;;;;5.47;4.60;;;25.10;58.50;;;;;;4960473;28;20454;-75
2021/06/16 01:04:26;;;;;;;5.13;4.63;;;25.10;58.50;;;;;;4961320;28;20210;-77
2021/06/16 01:07:02;;;;;;;4.60;4.10;;;25.00;58.70;;;;;;4963294;28;20453;-78
2021/06/16 01:09:27;;;;;;;5.00;4.50;;;25.00;58.90;;;;;;4966211;28;20461;-78
2021/06/16 01:11:56;;;;;;;4.17;3.87;;;25.00;59.00;;;;;;4966710;28;20436;-76
2021/06/16 01:14:33;;;;;;;5.60;4.17;;;24.90;59.00;;;;;;4960189;28;20214;-77
2021/06/16 01:17:03;;;;;;;4.97;4.07;;;24.90;59.30;;;;;;4964970;28;20464;-79
2021/06/16 01:20:00;;;;;;;5.23;4.50;;;24.80;59.40;;;;;;4968458;28;20430;-76
2021/06/16 01:22:43;;;;;;;4.87;4.47;;;24.70;59.60;;;;;;4965864;28;20936;-78
2021/06/16 01:25:17;;;;;;;5.07;4.43;;;24.60;59.90;;;;;;4966255;28;20939;-77
2021/06/16 01:27:43;;;;;;;5.00;4.57;;;24.50;60.20;;;;;;4964014;28;20423;-76
2021/06/16 01:30:10;;;;;;;5.50;4.50;;;24.40;61.00;;;;;;4964335;28;20487;-77
2021/06/16 01:32:36;;;;;;;4.87;4.37;;;24.50;61.10;;;;;;4962407;28;21012;-74
2021/06/16 01:35:03;;;;;;;4.57;4.10;;;24.50;61.00;;;;;;4964480;28;20457;-78
2021/06/16 01:37:28;;;;;;;6.50;5.17;;;24.40;61.10;;;;;;4961410;28;20458;-75
2021/06/16 01:39:56;;;;;;;5.00;4.50;;;24.30;61.40;;;;;;4966181;28;20450;-75
2021/06/16 01:42:24;;;;;;;6.27;4.70;;;24.30;61.70;;;;;;4963614;28;20195;-75
2021/06/16 01:44:53;;;;;;;5.73;5.23;;;24.30;61.50;;;;;;4964982;28;20491;-76
2021/06/16 01:47:21;;;;;;;6.93;4.50;;;24.20;61.80;;;;;;4963554;28;20962;-76
2021/06/16 01:49:48;;;;;;;5.23;4.83;;;24.10;62.20;;;;;;4962341;28;20446;-75
2021/06/16 01:52:17;;;;;;;5.00;4.60;;;24.00;62.20;;;;;;4963960;28;20525;-78
2021/06/16 01:54:43;;;;;;;4.83;4.33;;;24.10;62.10;;;;;;4964945;28;20990;-78
2021/06/16 01:57:11;;;;;;;5.43;5.00;;;23.90;62.40;;;;;;4964987;28;20465;-79
2021/06/16 01:59:42;;;;;;;5.37;4.87;;;24.00;62.10;;;;;;4963771;28;20698;-77
2021/06/16 02:02:08;;;;;;;5.87;4.90;;;24.00;62.00;;;;;;4961596;28;21198;-78
2021/06/16 02:04:34;;;;;;;5.77;5.27;;;24.00;62.20;;;;;;4962434;28;20469;-79
2021/06/16 02:07:15;;;;;;;5.13;4.63;;;24.10;61.70;;;;;;4967036;28;20434;-76
2021/06/16 02:09:44;;;;;;;4.30;4.00;;;24.10;61.50;;;;;;4964133;28;20797;-78
2021/06/16 02:12:13;;;;;;;5.40;5.00;;;24.00;61.70;;;;;;4962810;28;20449;-77
2021/06/16 02:14:42;;;;;;;5.67;4.33;;;24.00;61.80;;;;;;4962063;28;20457;-78
2021/06/16 02:17:11;;;;;;;4.90;4.40;;;24.00;61.50;;;;;;4959946;28;20488;-76
2021/06/16 02:19:38;;;;;;;5.37;4.20;;;23.90;62.10;;;;;;4964239;28;20508;-79
2021/06/16 02:22:06;;;;;;;4.90;4.50;;;23.90;61.70;;;;;;4963642;28;20445;-78
2021/06/16 02:24:32;;;;;;;4.00;3.70;;;24.00;61.30;;;;;;4961526;28;20470;-79
2021/06/16 02:26:58;;;;;;;7.60;4.00;;;24.00;60.70;;;;;;4965270;28;20438;-78
2021/06/16 02:29:26;;;;;;;4.00;3.70;;;24.00;59.90;;;;;;4965835;28;20529;-79
2021/06/16 02:31:52;;;;;;;4.80;4.40;;;24.10;59.80;;;;;;4961094;28;20441;-79
2021/06/16 02:34:19;;;;;;;6.53;4.47;;;23.80;61.60;;;;;;4962770;28;20963;-76
2021/06/16 02:36:49;;;;;;;8.60;4.87;;;24.00;59.60;;;;;;4962580;28;20282;-78
2021/06/16 02:39:24;;;;;;;5.30;4.80;;;24.00;59.60;;;;;;4965448;28;20877;-77
2021/06/16 02:41:51;;;;;;;4.73;4.33;;;24.00;59.00;;;;;;4964470;28;20410;-79
2021/06/16 02:44:17;;;;;;;4.60;4.20;;;24.00;59.00;;;;;;4961230;28;20465;-76
2021/06/16 02:46:48;;;;;;;6.93;4.50;;;24.10;59.40;;;;;;4960174;28;20509;-78
2021/06/16 02:49:14;;;;;;;5.13;4.73;;;23.90;59.80;;;;;;4957890;28;20455;-80
2021/06/16 02:51:41;;;;;;;4.63;4.23;;;24.00;60.30;;;;;;4962480;28;20443;-78
2021/06/16 02:54:16;;;;;;;6.27;4.83;;;24.10;60.40;;;;;;4956988;28;20446;-75
2021/06/16 02:56:44;;;;;;;5.27;4.77;;;24.20;60.60;;;;;;4956026;28;20497;-75
2021/06/16 02:59:11;;;;;;;5.00;4.33;;;24.10;61.00;;;;;;4956967;28;20438;-78
2021/06/16 03:01:37;;;;;;;5.13;4.73;;;24.00;61.40;;;;;;4955145;28;20437;-78
2021/06/16 03:04:05;;;;;;;4.67;4.27;;;24.10;61.40;;;;;;4962154;28;20465;-76
2021/06/16 03:06:32;;;;;;;5.40;4.13;;;24.00;61.50;;;;;;4960797;28;20473;-77
2021/06/16 03:09:00;;;;;;;4.30;4.00;;;24.00;62.20;;;;;;4961756;28;20482;-77
2021/06/16 03:11:30;;;;;;;4.80;4.40;;;24.00;62.20;;;;;;4966290;28;20532;-75
2021/06/16 03:13:55;;;;;;;4.20;3.80;;;23.90;62.30;;;;;;4960991;28;20560;-76
2021/06/16 03:16:21;;;;;;;5.07;4.57;;;23.80;62.30;;;;;;4960878;28;20564;-80
2021/06/16 03:18:48;;;;;;;9.70;4.53;;;23.90;62.20;;;;;;4964555;28;20434;-78
2021/06/16 03:21:16;;;;;;;4.90;4.50;;;23.90;62.20;;;;;;4963829;28;20481;-79
2021/06/16 03:23:43;;;;;;;4.90;4.50;;;23.80;62.30;;;;;;4965227;28;20497;-78
2021/06/16 03:26:09;;;;;;;4.97;4.23;;;23.80;62.30;;;;;;4960599;28;20519;-79
2021/06/16 03:28:37;;;;;;;4.43;4.03;;;23.60;63.50;;;;;;4962046;28;20908;-76
2021/06/16 03:31:05;;;;;;;4.97;4.57;;;23.60;62.90;;;;;;4945130;28;20446;-79
2021/06/16 03:33:30;;;;;;;6.63;4.50;;;23.60;63.20;;;;;;4963846;28;20842;-76
2021/06/16 03:35:57;;;;;;;4.40;4.10;;;23.60;63.30;;;;;;4957582;28;20497;-75
2021/06/16 03:38:24;;;;;;;5.00;4.60;;;23.60;63.40;;;;;;4959275;28;20202;-77
2021/06/16 03:40:53;;;;;;;5.27;4.27;;;23.50;63.70;;;;;;4960650;28;20435;-77
2021/06/16 03:43:19;;;;;;;4.40;4.10;;;23.50;64.00;;;;;;4961804;28;20472;-78
2021/06/16 03:45:46;;;;;;;5.93;4.70;;;23.50;64.00;;;;;;4959162;28;20454;-77
2021/06/16 03:48:17;;;;;;;5.83;5.20;;;23.40;64.40;;;;;;4962462;28;20529;-79
2021/06/16 03:50:43;;;;;;;5.63;4.50;;;23.40;64.50;;;;;;4960658;28;20759;-79
2021/06/16 03:53:11;;;;;;;5.00;4.60;;;23.40;64.50;;;;;;4963693;28;20449;-76
2021/06/16 03:55:39;;;;;;;5.40;4.90;;;23.40;65.00;;;;;;4960726;28;20454;-77
2021/06/16 03:58:07;;;;;;;5.20;4.57;;;23.40;65.00;;;;;;4961349;28;20485;-76
2021/06/16 04:00:33;;;;;;;4.60;4.20;;;23.30;65.00;;;;;;4956867;28;20809;-77
2021/06/16 04:02:59;;;;;;;4.83;4.43;;;23.40;65.10;;;;;;4963819;28;20431;-77
2021/06/16 04:05:25;;;;;;;4.80;4.50;;;23.30;65.20;;;;;;4962973;28;20195;-78
2021/06/16 04:07:51;;;;;;;4.90;4.40;;;23.20;65.80;;;;;;4960196;28;20194;-77
2021/06/16 04:10:19;;;;;;;5.97;4.67;;;23.10;65.90;;;;;;4962084;28;20974;-79
2021/06/16 04:12:48;;;;;;;6.20;5.70;;;23.00;66.50;;;;;;4963948;28;20442;-81
2021/06/16 04:15:16;;;;;;;5.10;4.40;;;23.00;66.70;;;;;;4965080;28;20462;-78
2021/06/16 04:17:42;;;;;;;5.23;4.70;;;23.00;67.00;;;;;;4960425;28;20484;-75
2021/06/16 04:20:09;;;;;;;4.97;4.47;;;22.70;67.30;;;;;;4963017;28;21009;-76
2021/06/16 04:22:35;;;;;;;4.73;4.33;;;22.80;68.30;;;;;;4961103;28;20201;-77
2021/06/16 04:25:00;;;;;;;5.00;4.50;;;22.80;68.30;;;;;;4962086;28;20865;-78
2021/06/16 04:27:26;;;;;;;7.93;4.87;;;22.90;68.10;;;;;;4962111;28;20473;-78
2021/06/16 04:29:52;;;;;;;5.13;4.67;;;22.80;68.50;;;;;;4956369;28;20250;-79
2021/06/16 04:32:18;;;;;;;5.23;4.80;;;22.70;69.00;;;;;;4959360;28;20677;-79
2021/06/16 04:34:43;;;;;;;5.37;4.73;;;22.80;69.30;;;;;;4962140;28;20584;-76
2021/06/16 04:37:09;;;;;;;5.70;5.20;;;22.90;69.00;;;;;;4961253;28;20509;-77
2021/06/16 04:39:35;;;;;;;6.00;5.37;;;22.90;68.90;;;;;;4960382;28;20187;-78
2021/06/16 04:42:01;;;;;;;5.20;4.77;;;22.90;69.00;;;;;;4961568;28;20451;-77
2021/06/16 04:44:27;;;;;;;5.20;4.60;;;22.60;69.60;;;;;;4961507;28;20218;-77
2021/06/16 04:46:53;;;;;;;7.07;4.83;;;22.70;71.00;;;;;;4960809;28;20456;-80
2021/06/16 04:49:18;;;;;;;4.90;4.50;;;22.80;70.80;;;;;;4959386;28;20203;-77
2021/06/16 04:51:44;;;;;;;5.13;4.73;;;22.80;71.60;;;;;;4961208;28;21107;-76
2021/06/16 04:54:12;;;;;;;6.23;5.63;;;22.90;71.80;;;;;;4963431;28;20214;-78
2021/06/16 04:56:42;;;;;;;5.97;5.47;;;22.80;72.50;;;;;;4960757;28;20662;-77
2021/06/16 04:59:09;;;;;;;6.23;5.23;;;22.80;73.20;;;;;;4960260;28;20460;-78
2021/06/16 05:01:36;;;;;;;7.13;6.13;;;22.90;73.10;;;;;;4958945;28;20485;-77
2021/06/16 05:04:02;;;;;;;5.50;5.00;;;22.90;73.40;;;;;;4962539;28;20441;-79
2021/06/16 05:06:27;;;;;;;9.67;5.10;;;23.00;73.60;;;;;;4960823;28;20551;-77
2021/06/16 05:08:53;;;;;;;6.53;5.47;;;22.80;74.20;;;;;;4962837;28;20198;-77
2021/06/16 05:11:19;;;;;;;6.00;5.27;;;23.00;74.30;;;;;;4964306;28;20207;-78
2021/06/16 05:13:44;;;;;;;7.53;5.30;;;23.20;74.10;;;;;;4965360;28;20222;-79
2021/06/16 05:16:10;;;;;;;5.77;5.30;;;23.10;74.20;;;;;;4960459;28;20223;-77
2021/06/16 05:18:36;;;;;;;6.10;5.60;;;23.20;74.00;;;;;;4960818;28;20194;-79
2021/06/16 05:21:02;;;;;;;6.37;5.20;;;23.20;74.20;;;;;;4967406;28;20272;-77
2021/06/16 05:23:29;;;;;;;5.43;4.90;;;23.30;74.60;;;;;;4968590;28;20438;-81
2021/06/16 05:25:55;;;;;;;5.73;5.23;;;23.30;75.10;;;;;;4965363;28;20574;-76
2021/06/16 05:28:21;;;;;;;6.03;5.50;;;23.30;74.90;;;;;;4963654;28;20536;-77
2021/06/16 05:30:48;;;;;;;6.53;5.50;;;23.30;74.70;;;;;;4967417;28;20438;-81
2021/06/16 05:33:13;;;;;;;5.77;5.20;;;23.30;74.50;;;;;;4978687;28;20430;-79
2021/06/16 05:35:39;;;;;;;5.80;5.30;;;23.40;75.00;;;;;;4971189;28;20475;-77
2021/06/16 05:38:05;;;;;;;6.37;5.77;;;23.30;74.40;;;;;;4964346;28;20217;-79
2021/06/16 05:40:31;;;;;;;8.87;5.50;;;23.50;73.60;;;;;;4943596;28;20482;-78
2021/06/16 05:42:56;;;;;;;6.63;5.23;;;23.50;73.70;;;;;;4966976;28;20198;-78
2021/06/16 05:45:22;;;;;;;6.13;4.80;;;23.60;73.50;;;;;;4967651;28;20221;-79
2021/06/16 05:47:48;;;;;;;5.87;5.37;;;23.50;73.40;;;;;;4965703;28;20189;-79
2021/06/16 05:50:14;;;;;;;7.50;6.03;;;23.60;73.30;;;;;;4962615;28;20668;-78
2021/06/16 05:52:40;;;;;;;6.13;5.00;;;23.60;73.00;;;;;;4960941;28;20659;-78
2021/06/16 05:55:06;;;;;;;6.40;5.30;;;23.40;73.70;;;;;;4964984;28;20450;-79
2021/06/16 05:57:32;;;;;;;6.37;4.77;;;23.40;74.20;;;;;;4964992;28;20253;-79
2021/06/16 05:59:58;;;;;;;6.57;5.00;;;23.40;74.70;;;;;;4965941;28;20430;-77
2021/06/16 06:02:24;;;;;;;7.13;4.80;;;23.60;73.30;;;;;;4963888;28;20380;-80
2021/06/16 06:04:50;;;;;;;7.07;4.67;;;23.80;71.10;;;;;;4968789;28;20202;-78
2021/06/16 06:07:16;;;;;;;5.40;4.90;;;23.80;71.40;;;;;;4966286;28;20804;-77
2021/06/16 06:09:41;;;;;;;7.70;4.87;;;23.40;71.20;;;;;;4964889;28;20194;-80
2021/06/16 06:12:08;;;;;;;8.30;4.83;;;23.40;71.90;;;;;;4964404;28;20285;-78
2021/06/16 06:14:33;;;;;;;6.70;4.70;;;23.40;71.20;;;;;;4968996;28;20218;-77
2021/06/16 06:16:59;;;;;;;7.83;4.40;;;23.40;71.80;;;;;;4964390;28;20474;-79
2021/06/16 06:19:25;;;;;;;5.83;4.90;;;23.60;71.50;;;;;;4960434;28;20201;-79
2021/06/16 06:21:50;;;;;;;8.03;5.03;;;23.70;70.40;;;;;;4966008;28;20786;-78
2021/06/16 06:24:16;;;;;;;6.70;4.90;;;23.80;70.40;;;;;;4965102;28;20213;-78
2021/06/16 06:26:42;;;;;;;5.10;4.60;;;23.60;69.70;;;;;;4965736;28;20202;-77
2021/06/16 06:29:08;;;;;;;4.10;3.80;;;23.70;70.20;;;;;;4961193;28;20198;-78
2021/06/16 06:31:36;;;;;;;5.87;5.33;;;23.90;69.30;;;;;;4964075;28;20217;-80
2021/06/16 06:34:01;;;;;;;5.63;5.10;;;24.10;69.30;;;;;;4965043;28;20214;-78
2021/06/16 06:36:27;;;;;;;7.30;4.50;;;23.90;69.50;;;;;;4966793;28;20466;-78
2021/06/16 06:38:53;;;;;;;8.80;4.60;;;24.10;69.70;;;;;;4963181;28;20179;-77
2021/06/16 06:41:19;;;;;;;5.10;4.40;;;24.40;69.70;;;;;;4964795;28;20485;-79
2021/06/16 06:43:45;;;;;;;4.30;4.00;;;24.50;69.10;;;;;;4961967;28;20214;-76
2021/06/16 06:46:12;;;;;;;5.60;5.10;;;24.50;68.50;;;;;;4959784;28;20434;-78
2021/06/16 06:48:38;;;;;;;4.80;4.40;;;24.40;68.00;;;;;;4961684;28;20195;-81
2021/06/16 06:51:04;;;;;;;5.20;4.80;;;24.50;68.10;;;;;;4968354;28;20441;-79
2021/06/16 06:53:30;;;;;;;9.00;5.10;;;24.60;67.80;;;;;;4975893;28;20222;-78
2021/06/16 06:55:59;;;;;;;6.43;4.57;;;24.30;68.40;;;;;;4975975;28;20498;-78
2021/06/16 06:58:25;;;;;;;9.00;4.70;;;24.20;69.50;;;;;;4982406;28;20268;-80
2021/06/16 07:00:51;;;;;;;5.40;4.90;;;24.30;68.70;;;;;;4978163;28;20454;-79
2021/06/16 07:03:17;;;;;;;5.30;4.80;;;24.30;68.30;;;;;;4980362;28;20446;-78
2021/06/16 07:05:43;;;;;;;5.73;5.23;;;24.30;69.10;;;;;;4969664;28;20452;-76
2021/06/16 07:08:09;;;;;;;6.20;4.40;;;24.20;68.90;;;;;;4965046;28;20505;-77
2021/06/16 07:10:35;;;;;;;7.67;5.60;;;24.30;69.20;;;;;;4963461;28;20461;-78
2021/06/16 07:13:02;;;;;;;7.33;4.70;;;24.60;68.70;;;;;;4960434;28;20763;-78
2021/06/16 07:15:28;;;;;;;9.60;6.40;;;24.50;69.30;;;;;;4957710;28;20696;-79
2021/06/16 07:17:54;;;;;;;5.97;4.90;;;24.30;70.30;;;;;;4963548;28;20431;-76
2021/06/16 07:20:19;;;;;;;5.27;4.67;;;24.30;69.90;;;;;;4961816;28;20241;-77
2021/06/16 07:22:46;;;;;;;8.27;4.77;;;24.40;69.40;;;;;;4961325;28;20285;-79
2021/06/16 07:25:12;;;;;;;5.20;4.70;;;24.50;69.30;;;;;;4962501;28;20290;-77
2021/06/16 07:27:38;;;;;;;10.50;4.47;;;24.30;69.60;;;;;;4959248;28;20525;-78
2021/06/16 07:30:06;;;;;;;5.07;4.67;;;24.30;69.80;;;;;;4961813;28;20217;-77
2021/06/16 07:32:32;;;;;;;5.50;4.50;;;24.30;69.90;;;;;;4958322;28;20443;-77
2021/06/16 07:34:59;;;;;;;4.53;4.20;;;24.50;69.20;;;;;;4961505;28;20468;-76
2021/06/16 07:37:25;;;;;;;6.00;5.30;;;24.70;68.90;;;;;;4964363;28;20473;-76
2021/06/16 07:39:55;;;;;;;6.67;4.80;;;24.90;68.80;;;;;;4958408;28;20449;-76
2021/06/16 07:42:22;;;;;;;7.40;4.70;;;25.10;68.60;;;;;;4959589;28;21345;-76
2021/06/16 07:44:47;;;;;;;5.83;4.80;;;25.20;68.20;;;;;;4962570;28;20509;-78
2021/06/16 07:47:13;;;;;;;8.10;5.40;;;25.20;68.80;;;;;;4962848;28;20429;-77
2021/06/16 07:49:39;;;;;;;5.97;4.93;;;25.30;68.60;;;;;;4959806;28;20207;-76
2021/06/16 07:52:06;;;;;;;6.00;4.80;;;25.20;68.70;;;;;;4962156;28;20572;-77
2021/06/16 07:54:32;;;;;;;5.43;4.30;;;25.20;69.30;;;;;;4957343;28;21072;-76
2021/06/16 07:56:57;;;;;;;6.93;5.27;;;25.40;68.30;;;;;;4958852;28;20470;-77
2021/06/16 07:59:23;;;;;;;6.33;5.70;;;25.50;68.00;;;;;;4958843;28;20190;-78
2021/06/16 08:01:50;;;;;;;6.30;4.93;;;25.50;68.40;;;;;;4962924;28;20198;-77
2021/06/16 08:04:16;;;;;;;7.17;5.00;;;25.50;68.00;;;;;;4959122;28;20214;-78
2021/06/16 08:06:42;;;;;;;5.30;4.00;;;25.60;67.20;;;;;;4958267;28;20449;-77
2021/06/16 08:09:07;;;;;;;6.07;5.43;;;25.80;65.80;;;;;;4960014;28;21177;-75
2021/06/16 08:11:33;;;;;;;8.37;6.60;;;25.80;66.10;;;;;;4958055;28;20676;-76
2021/06/16 08:13:59;;;;;;;6.43;5.83;;;25.90;66.80;;;;;;4960697;28;20245;-76
2021/06/16 08:16:27;;;;;;;14.63;5.13;;;25.80;67.50;;;;;;4962313;28;20237;-77
2021/06/16 08:18:56;;;;;;;7.50;5.20;;;25.90;66.40;;;;;;4961570;28;20194;-76
2021/06/16 08:21:22;;;;;;;8.77;7.53;;;26.00;65.20;;;;;;4960689;28;20489;-77
2021/06/16 08:23:48;;;;;;;5.30;4.90;;;26.10;65.50;;;;;;4958709;28;20543;-78
2021/06/16 08:26:15;;;;;;;8.60;7.63;;;25.90;65.40;;;;;;4962665;28;20202;-75
2021/06/16 08:28:42;;;;;;;4.80;4.40;;;26.10;66.00;;;;;;4960248;28;20591;-77
2021/06/16 08:31:08;;;;;;;6.63;5.27;;;26.20;64.30;;;;;;4960937;28;20479;-80
2021/06/16 08:33:36;;;;;;;6.40;5.50;;;26.30;64.40;;;;;;4957258;28;21025;-79
2021/06/16 08:36:05;;;;;;;12.63;10.40;;;26.40;64.20;;;;;;4961026;28;20832;-78
2021/06/16 08:38:31;;;;;;;5.60;5.10;;;26.40;64.60;;;;;;4961859;28;20489;-77
2021/06/16 08:41:03;;;;;;;11.27;6.80;;;26.50;64.00;;;;;;4961131;28;20434;-76
2021/06/16 08:43:43;;;;;;;9.10;5.80;;;26.60;64.10;;;;;;4960606;28;20691;-75
2021/06/16 08:46:13;;;;;;;6.23;5.70;;;26.50;63.70;;;;;;4960580;28;20442;-79
2021/06/16 08:48:39;;;;;;;7.10;5.80;;;26.70;64.30;;;;;;4960077;28;20438;-78
2021/06/16 08:51:06;;;;;;;8.13;7.10;;;26.80;64.10;;;;;;4961539;28;20437;-78
2021/06/16 08:53:33;;;;;;;8.77;5.93;;;26.90;64.30;;;;;;4960861;28;20469;-77
2021/06/16 08:55:59;;;;;;;7.23;6.53;;;26.90;65.10;;;;;;4962133;28;20924;-80
2021/06/16 08:58:25;;;;;;;6.60;5.80;;;26.90;66.00;;;;;;4961296;28;20438;-77
2021/06/16 09:00:52;;;;;;;7.97;6.43;;;26.90;66.30;;;;;;4968045;28;20456;-80
2021/06/16 09:03:17;;;;;;;8.10;6.50;;;27.00;64.70;;;;;;4966871;28;20469;-79
2021/06/16 09:05:43;;;;;;;5.63;5.17;;;27.20;65.10;;;;;;4964032;28;20442;-77
2021/06/16 09:08:18;;;;;;;8.97;6.03;;;27.20;65.50;;;;;;4966706;28;20209;-80
2021/06/16 09:10:52;;;;;;;6.50;5.47;;;27.30;64.40;;;;;;4979968;28;20186;-77
2021/06/16 09:13:29;;;;;;;5.73;5.23;;;27.40;64.40;;;;;;4966272;28;20434;-78
2021/06/16 09:15:56;;;;;;;7.13;5.07;;;27.40;64.80;;;;;;4962891;28;20846;-76
2021/06/16 09:18:22;;;;;;;8.43;5.43;;;27.50;64.90;;;;;;4964351;28;20422;-77
2021/06/16 09:20:52;;;;;;;9.73;6.60;;;27.60;64.20;;;;;;4963680;28;20442;-75
2021/06/16 09:23:23;;;;;;;9.10;5.97;;;27.60;64.00;;;;;;4962466;28;20669;-76
2021/06/16 09:26:09;;;;;;;6.60;5.87;;;27.70;64.20;;;;;;4967561;28;20430;-79
2021/06/16 09:28:43;;;;;;;6.10;5.50;;;27.70;63.50;;;;;;4965223;28;20950;-77
2021/06/16 09:31:13;;;;;;;7.60;6.60;;;27.80;63.30;;;;;;4963196;28;21139;-79
2021/06/16 09:33:40;;;;;;;6.57;5.97;;;27.80;63.30;;;;;;4962428;28;20481;-78
2021/06/16 09:36:14;;;;;;;6.23;5.63;;;27.80;62.70;;;;;;4965849;28;20478;-79
2021/06/16 09:38:42;;;;;;;7.70;5.50;;;27.80;62.30;;;;;;4963761;28;20438;-78
2021/06/16 09:41:10;;;;;;;6.90;6.30;;;27.90;62.40;;;;;;4965392;28;20484;-77
2021/06/16 09:43:36;;;;;;;5.60;5.10;;;27.80;61.70;;;;;;4964041;28;20496;-78
2021/06/16 09:46:04;;;;;;;8.70;6.07;;;27.80;61.70;;;;;;4963479;28;20441;-78
2021/06/16 09:48:42;;;;;;;9.27;6.47;;;27.90;61.40;;;;;;4949314;28;20430;-79
2021/06/16 09:51:23;;;;;;;6.63;5.90;;;28.00;61.30;;;;;;4964786;28;20842;-77
2021/06/16 09:56:52;;;;;;;6.50;6.00;;;28.20;62.40;;;;;;4962512;28;20501;-78
2021/06/16 09:59:46;;;;;;;6.33;5.23;;;28.10;61.40;;;;;;4961154;28;20497;-79
2021/06/16 10:02:17;;;;;;;8.00;5.60;;;28.20;61.10;;;;;;4964623;28;20503;-77
2021/06/16 10:04:45;;;;;;;6.00;5.50;;;28.10;61.90;;;;;;4965215;28;20454;-80
2021/06/16 10:07:22;;;;;;;8.70;6.50;;;28.00;63.40;;;;;;4969519;28;20441;-81
2021/06/16 10:09:53;;;;;;;6.10;5.53;;;28.10;62.40;;;;;;4964194;28;20446;-77
2021/06/16 10:12:21;;;;;;;6.23;5.40;;;28.30;63.40;;;;;;4974085;28;20871;-77
2021/06/16 10:14:47;;;;;;;6.37;5.67;;;28.40;63.60;;;;;;4964139;28;20459;-77
2021/06/16 10:17:16;;;;;;;6.07;5.47;;;28.50;63.80;;;;;;4965362;28;20982;-77
2021/06/16 10:19:43;;;;;;;5.97;5.50;;;28.60;63.20;;;;;;4958796;28;20538;-78
2021/06/16 10:22:11;;;;;;;7.37;6.70;;;28.70;62.30;;;;;;4962560;28;20891;-77
2021/06/16 10:24:36;;;;;;;6.40;5.90;;;28.70;61.90;;;;;;4961110;28;20454;-78
2021/06/16 10:27:06;;;;;;;7.37;6.40;;;28.80;62.60;;;;;;4966268;28;20863;-78
2021/06/16 10:29:35;;;;;;;6.03;5.43;;;28.80;62.70;;;;;;4954691;28;20599;-78
2021/06/16 10:32:06;;;;;;;11.93;5.90;;;28.70;63.50;;;;;;4957340;28;20505;-78
2021/06/16 10:34:58;;;;;;;6.70;6.10;;;28.80;63.50;;;;;;4955661;28;20521;-80
2021/06/16 10:37:34;;;;;;;12.10;6.63;;;28.90;63.60;;;;;;4957028;28;20855;-78
2021/06/16 10:40:19;;;;;;;8.10;6.10;;;29.10;61.70;;;;;;4958271;28;21093;-77
2021/06/16 10:43:03;;;;;;;6.37;5.77;;;29.10;61.40;;;;;;4959805;28;20982;-79
2021/06/16 10:45:36;;;;;;;9.60;5.50;;;29.20;62.70;;;;;;4957305;28;20808;-80
2021/06/16 10:48:07;;;;;;;6.70;5.77;;;29.30;62.70;;;;;;4959934;28;20477;-76
2021/06/16 10:50:48;;;;;;;8.37;6.17;;;29.40;63.50;;;;;;4958858;28;20442;-78
2021/06/16 10:53:18;;;;;;;5.90;5.40;;;29.50;61.40;;;;;;4958650;28;20461;-81
2021/06/16 10:55:53;;;;;;;5.50;5.00;;;29.60;61.80;;;;;;4960010;28;20474;-79
2021/06/16 10:58:46;;;;;;;6.20;5.50;;;29.70;60.50;;;;;;4961197;28;20438;-78
2021/06/16 11:01:19;;;;;;;6.30;5.80;;;29.70;60.00;;;;;;4960428;28;20481;-78
2021/06/16 11:03:54;;;;;;;5.67;5.17;;;29.80;59.50;;;;;;4958168;28;20568;-80
2021/06/16 11:06:37;;;;;;;7.07;6.40;;;29.90;58.90;;;;;;4961489;28;20734;-78
2021/06/16 11:09:10;;;;;;;6.40;5.50;;;30.00;59.20;;;;;;4960490;28;20963;-81
2021/06/16 11:11:51;;;;;;;6.70;6.10;;;30.10;59.00;;;;;;4956685;28;20443;-80
2021/06/16 11:14:42;;;;;;;7.53;6.93;;;30.30;59.30;;;;;;4956918;28;20456;-78
2021/06/16 11:17:10;;;;;;;7.20;5.73;;;30.50;58.50;;;;;;4964807;28;20493;-81
2021/06/16 11:19:36;;;;;;;10.70;6.47;;;30.50;57.90;;;;;;4963344;28;20464;-81
2021/06/16 11:22:14;;;;;;;6.93;6.33;;;30.60;57.80;;;;;;4954376;28;20817;-83
2021/06/16 11:25:19;;;;;;;7.23;6.63;;;30.70;57.70;;;;;;4955828;28;20262;-80
2021/06/16 11:28:10;;;;;;;9.17;7.03;;;30.80;57.30;;;;;;4962148;28;20517;-77
2021/06/16 11:30:54;;;;;;;7.30;6.70;;;31.00;57.00;;;;;;4961939;28;20541;-79
2021/06/16 11:33:26;;;;;;;6.50;5.90;;;31.10;57.40;;;;;;4964896;28;20539;-79
2021/06/16 11:35:52;;;;;;;6.70;6.10;;;31.20;56.70;;;;;;4962867;28;20473;-79
2021/06/16 11:38:29;;;;;;;6.97;6.30;;;31.40;56.70;;;;;;4960163;28;20561;-81
2021/06/16 11:41:17;;;;;;;9.90;7.03;;;31.60;56.40;;;;;;4962707;28;20408;-79
2021/06/16 11:43:59;;;;;;;7.20;6.60;;;31.90;56.00;;;;;;4966036;28;20462;-80
2021/06/16 11:46:38;;;;;;;8.50;7.00;;;32.00;56.10;;;;;;4954699;28;20437;-79
2021/06/16 11:49:10;;;;;;;6.70;6.10;;;32.00;56.20;;;;;;4960453;28;20480;-83
2021/06/16 11:51:57;;;;;;;8.33;7.60;;;32.40;55.90;;;;;;4954676;28;20956;-79
2021/06/16 11:54:27;;;;;;;7.37;6.77;;;32.80;54.70;;;;;;4972589;28;20563;-77
2021/06/16 11:57:00;;;;;;;6.67;5.67;;;32.90;54.80;;;;;;4959879;28;20478;-78
2021/06/16 11:59:36;;;;;;;6.67;6.07;;;32.80;54.80;;;;;;4962796;28;20489;-77
2021/06/16 12:02:15;;;;;;;6.57;6.07;;;33.10;54.60;;;;;;4961617;28;20415;-77
2021/06/16 12:05:01;;;;;;;6.40;5.80;;;33.20;54.00;;;;;;4955404;28;20438;-79
2021/06/16 12:07:27;;;;;;;6.90;6.13;;;34.20;53.30;;;;;;4961494;28;20507;-78
2021/06/16 12:09:59;;;;;;;7.27;6.67;;;35.60;51.10;;;;;;4959293;28;20488;-85
2021/06/16 12:12:28;;;;;;;6.97;6.37;;;36.20;49.70;;;;;;4963697;28;20196;-83
2021/06/16 12:15:13;;;;;;;8.40;7.13;;;36.60;49.40;;;;;;4969676;28;20459;-86
2021/06/16 12:17:54;;;;;;;7.63;6.97;;;37.20;48.40;;;;;;4972516;28;20432;-84
2021/06/16 12:20:25;;;;;;;8.13;7.43;;;37.30;47.70;;;;;;4964416;28;20997;-83
2021/06/16 12:22:53;;;;;;;5.90;5.50;;;37.90;46.80;;;;;;4964722;28;20814;-82
2021/06/16 12:25:32;;;;;;;7.03;6.33;;;37.50;46.40;;;;;;4972015;28;20437;-85
2021/06/16 12:27:59;;;;;;;7.07;6.37;;;37.60;46.60;;;;;;4969283;28;20441;-85
2021/06/16 12:30:34;;;;;;;8.37;7.53;;;38.00;45.80;;;;;;4981275;28;20408;-84
2021/06/16 12:38:36;;;;;;;7.43;6.93;;;38.30;45.60;;;;;;4967713;28;20486;-77
2021/06/16 12:41:20;;;;;;;6.03;5.37;;;38.50;44.50;;;;;;4970212;28;20423;-78
2021/06/16 12:43:46;;;;;;;5.67;5.17;;;37.60;43.70;;;;;;4965415;28;20466;-75
2021/06/16 12:46:11;;;;;;;5.90;5.40;;;37.20;44.20;;;;;;4965027;28;20465;-76
2021/06/16 12:48:37;;;;;;;5.17;4.67;;;37.30;43.80;;;;;;4961646;28;20953;-78
2021/06/16 12:51:04;;;;;;;5.40;5.00;;;38.10;44.20;;;;;;4961954;28;20190;-77
2021/06/16 12:53:35;;;;;;;5.33;4.73;;;38.20;44.10;;;;;;4963340;28;20209;-75
2021/06/16 12:56:03;;;;;;;4.70;4.40;;;39.10;43.20;;;;;;4967522;28;20484;-79
2021/06/16 12:58:29;;;;;;;5.17;4.77;;;40.00;41.90;;;;;;4962461;28;20971;-75
2021/06/16 13:00:59;;;;;;;4.90;4.50;;;40.50;41.00;;;;;;4963753;28;20671;-77
2021/06/16 13:03:29;;;;;;;5.10;4.60;;;40.80;39.30;;;;;;4965587;28;20451;-77